Time;durP1;ratioP1;P1;durP2;ratioP2;P2;SDS_P1;SDS_P2;PMS_P1;PMS_P2;Temp;Humidity;BMP_temperature;BMP_pressure;BME280_temperature;BME280_humidity;BME280_pressure;Samples;Min_cycle;Max_cycle;Signal;HPM_P1;HPM_P2
2022/10/26 00:02:53;;;;;;;10.45;3.42;;;15.40;99.90;;;;;;6228341;28;20057;-83
2022/10/26 00:06:03;;;;;;;7.70;1.45;;;15.40;99.90;;;;;;6227244;28;20415;-84
2022/10/26 00:09:04;;;;;;;9.60;1.80;;;15.30;99.90;;;;;;6227010;28;20503;-82
2022/10/26 00:12:06;;;;;;;7.95;1.98;;;15.20;99.90;;;;;;6228511;28;20415;-82
2022/10/26 00:15:09;;;;;;;5.90;1.88;;;15.30;99.90;;;;;;6230445;28;20057;-82
2022/10/26 00:18:10;;;;;;;7.38;2.20;;;15.20;99.90;;;;;;6226606;28;20050;-82
2022/10/26 00:21:13;;;;;;;9.70;1.45;;;15.20;99.90;;;;;;6228072;28;20046;-83
2022/10/26 00:24:15;;;;;;;15.07;3.35;;;15.20;99.90;;;;;;6245501;28;20048;-85
2022/10/26 00:27:17;;;;;;;11.68;2.15;;;15.20;99.90;;;;;;6242547;28;20046;-87
2022/10/26 00:30:19;;;;;;;7.05;1.55;;;15.30;99.90;;;;;;6230709;28;20052;-86
2022/10/26 00:33:20;;;;;;;7.40;1.60;;;15.20;99.90;;;;;;6213786;28;20057;-86
2022/10/26 00:36:25;;;;;;;4.43;1.35;;;15.30;99.90;;;;;;6204846;28;20520;-86
2022/10/26 00:39:27;;;;;;;4.68;1.65;;;15.30;99.90;;;;;;6204332;28;20050;-86
2022/10/26 00:42:28;;;;;;;4.00;1.88;;;15.20;99.90;;;;;;6205146;28;20058;-86
2022/10/26 00:45:31;;;;;;;9.20;2.05;;;15.20;99.90;;;;;;6203490;28;20050;-86
2022/10/26 00:48:37;;;;;;;7.93;1.65;;;15.10;99.90;;;;;;6204074;28;20053;-86
2022/10/26 00:51:50;;;;;;;7.00;2.00;;;15.20;99.90;;;;;;6204830;28;20050;-87
2022/10/26 00:54:56;;;;;;;5.95;1.73;;;15.10;99.90;;;;;;6203552;28;20046;-86
2022/10/26 00:57:59;;;;;;;9.23;1.67;;;15.40;99.90;;;;;;6203980;28;20054;-85
2022/10/26 01:01:01;;;;;;;13.35;1.85;;;15.50;99.90;;;;;;6203396;28;20046;-86
2022/10/26 01:04:03;;;;;;;8.38;1.90;;;15.20;99.90;;;;;;6204281;28;20046;-85
2022/10/26 01:07:08;;;;;;;5.75;1.73;;;15.20;99.90;;;;;;6204043;28;20046;-86
2022/10/26 01:10:12;;;;;;;9.20;1.50;;;15.30;99.90;;;;;;6204397;28;20069;-85
2022/10/26 01:13:17;;;;;;;4.22;1.40;;;15.70;99.90;;;;;;6204212;28;20050;-86
2022/10/26 01:16:49;;;;;;;17.35;4.38;;;15.30;99.90;;;;;;6204690;28;20073;-86
2022/10/26 01:20:20;;;;;;;14.85;1.88;;;15.30;99.90;;;;;;6205083;28;20053;-84
2022/10/26 01:23:31;;;;;;;4.68;1.92;;;15.20;99.90;;;;;;6205165;28;20085;-83
2022/10/26 01:30:21;;;;;;;7.22;1.45;;;15.10;99.90;;;;;;6217708;28;20054;-85
2022/10/26 01:33:32;;;;;;;7.15;1.40;;;15.00;99.90;;;;;;6215601;28;20045;-86
2022/10/26 01:36:48;;;;;;;16.60;2.38;;;15.00;99.90;;;;;;6214164;28;20070;-85
2022/10/26 01:40:02;;;;;;;8.98;1.50;;;15.00;99.90;;;;;;6214319;23;20053;-82
2022/10/26 01:43:08;;;;;;;7.95;1.45;;;15.10;99.90;;;;;;6176382;28;20047;-81
2022/10/26 01:46:12;;;;;;;10.35;3.40;;;15.10;99.90;;;;;;6176403;28;20066;-82
2022/10/26 01:49:16;;;;;;;11.45;1.95;;;15.20;99.90;;;;;;6176262;28;20074;-81
2022/10/26 01:52:18;;;;;;;3.40;2.40;;;15.20;99.90;;;;;;6176525;28;20043;-81
2022/10/26 01:55:40;;;;;;;4.97;1.50;;;15.30;99.90;;;;;;6177219;28;20051;-81
2022/10/26 01:59:13;;;;;;;7.22;1.80;;;15.20;99.90;;;;;;6176672;28;20105;-81
2022/10/26 02:02:36;;;;;;;6.78;2.10;;;15.30;99.90;;;;;;6168179;28;20043;-82
2022/10/26 02:05:51;;;;;;;3.85;2.35;;;15.20;99.90;;;;;;6176945;28;20047;-81
2022/10/26 02:09:00;;;;;;;5.80;2.03;;;15.30;99.90;;;;;;6175906;28;20046;-81
2022/10/26 02:12:10;;;;;;;7.90;2.13;;;15.30;99.90;;;;;;6176681;28;20504;-81
2022/10/26 02:15:16;;;;;;;5.85;1.58;;;15.30;99.90;;;;;;6176178;28;20408;-81
2022/10/26 02:18:28;;;;;;;10.52;2.00;;;15.30;99.90;;;;;;6176837;28;20047;-81
2022/10/26 02:21:36;;;;;;;8.38;2.10;;;15.40;99.90;;;;;;6176997;28;20054;-82
2022/10/26 02:24:39;;;;;;;9.30;2.35;;;15.40;99.90;;;;;;6177012;28;20050;-81
2022/10/26 02:27:46;;;;;;;5.55;1.70;;;15.40;99.90;;;;;;6176595;28;20047;-81
2022/10/26 02:30:52;;;;;;;16.38;2.28;;;15.40;99.90;;;;;;6179275;28;20054;-82
2022/10/26 02:34:00;;;;;;;7.40;2.05;;;15.30;99.90;;;;;;6182087;28;20043;-82
2022/10/26 02:37:03;;;;;;;13.38;3.05;;;15.20;99.90;;;;;;6182041;28;20046;-81
2022/10/26 02:40:09;;;;;;;6.38;1.63;;;15.10;99.90;;;;;;6181402;28;20424;-82
2022/10/26 02:43:15;;;;;;;7.00;1.77;;;15.10;99.90;;;;;;6181920;28;20393;-81
2022/10/26 02:46:20;;;;;;;3.25;2.00;;;15.10;99.90;;;;;;6181572;28;20047;-82
2022/10/26 02:49:24;;;;;;;6.75;2.53;;;15.10;99.90;;;;;;6181262;28;20057;-83
2022/10/26 02:52:35;;;;;;;8.77;2.08;;;15.10;99.90;;;;;;6181153;28;20496;-80
2022/10/26 02:55:42;;;;;;;8.00;2.22;;;15.00;99.90;;;;;;6184014;28;20051;-80
2022/10/26 02:58:49;;;;;;;7.47;3.55;;;15.00;99.90;;;;;;6179971;28;20078;-81
2022/10/26 03:01:51;;;;;;;9.17;2.10;;;14.90;99.90;;;;;;6180071;28;20500;-81
2022/10/26 03:04:56;;;;;;;10.38;2.30;;;14.90;99.90;;;;;;6179611;28;20424;-82
2022/10/26 03:07:58;;;;;;;9.00;2.70;;;14.90;99.90;;;;;;6179474;28;20049;-81
2022/10/26 03:11:00;;;;;;;7.80;2.05;;;14.80;99.90;;;;;;6179700;28;20432;-81
2022/10/26 03:14:01;;;;;;;8.13;1.65;;;14.80;99.90;;;;;;6179589;28;20043;-81
2022/10/26 03:17:03;;;;;;;12.82;2.30;;;14.80;99.90;;;;;;6179800;28;20502;-81
2022/10/26 03:20:08;;;;;;;5.88;1.60;;;14.90;99.90;;;;;;6179772;28;20043;-81
2022/10/26 03:23:11;;;;;;;13.73;2.80;;;14.90;99.90;;;;;;6180380;28;20074;-81
2022/10/26 03:26:13;;;;;;;12.65;2.75;;;14.90;99.90;;;;;;6179476;28;20066;-81
2022/10/26 03:29:14;;;;;;;15.57;2.90;;;14.90;99.90;;;;;;6179041;28;20063;-81
2022/10/26 03:32:16;;;;;;;7.10;2.47;;;14.90;99.90;;;;;;6179784;28;20049;-82
2022/10/26 03:35:19;;;;;;;7.60;2.25;;;14.90;99.90;;;;;;6179973;28;20054;-81
2022/10/26 03:38:21;;;;;;;7.28;2.20;;;14.90;99.90;;;;;;6178565;28;20054;-81
2022/10/26 03:41:22;;;;;;;11.20;2.95;;;14.90;99.90;;;;;;6179252;28;20047;-82
2022/10/26 03:44:24;;;;;;;10.75;2.40;;;14.90;99.90;;;;;;6178943;28;20054;-81
2022/10/26 03:47:26;;;;;;;9.38;2.97;;;15.00;99.90;;;;;;6178973;28;20493;-81
2022/10/26 03:50:29;;;;;;;5.72;2.47;;;15.00;99.90;;;;;;6179155;28;20051;-81
2022/10/26 03:53:30;;;;;;;10.10;2.67;;;15.00;99.90;;;;;;6178466;28;20046;-81
2022/10/26 03:56:32;;;;;;;5.53;2.35;;;15.00;99.90;;;;;;6178982;28;20046;-80
2022/10/26 03:59:34;;;;;;;9.68;2.47;;;15.00;99.90;;;;;;6178281;28;20055;-81
2022/10/26 04:02:35;;;;;;;8.80;2.08;;;15.00;99.90;;;;;;6179021;28;20420;-81
2022/10/26 04:05:38;;;;;;;4.88;2.20;;;15.00;99.90;;;;;;6178706;28;20053;-81
2022/10/26 04:08:40;;;;;;;10.52;2.53;;;15.00;99.90;;;;;;6178089;28;20070;-81
2022/10/26 04:11:42;;;;;;;8.05;1.90;;;14.90;99.90;;;;;;6178209;28;20144;-82
2022/10/26 04:14:44;;;;;;;9.48;2.47;;;14.90;99.90;;;;;;6179031;28;20058;-81
2022/10/26 04:17:45;;;;;;;7.70;2.30;;;14.80;99.90;;;;;;6177815;28;20617;-80
2022/10/26 04:20:48;;;;;;;9.43;2.85;;;14.60;99.90;;;;;;6177762;28;20424;-81
2022/10/26 04:23:50;;;;;;;9.10;2.10;;;14.50;99.90;;;;;;6177711;28;20058;-80
2022/10/26 04:26:52;;;;;;;8.68;2.28;;;14.50;99.90;;;;;;6178595;28;20055;-80
2022/10/26 04:29:53;;;;;;;6.78;2.25;;;14.50;99.90;;;;;;6176744;28;20066;-80
2022/10/26 04:32:55;;;;;;;14.38;3.13;;;14.50;99.90;;;;;;6177319;28;20046;-81
2022/10/26 04:36:00;;;;;;;11.65;2.38;;;14.50;99.90;;;;;;6177254;28;20054;-81
2022/10/26 04:39:02;;;;;;;5.32;3.03;;;14.50;99.90;;;;;;6177635;28;20054;-80
2022/10/26 04:42:04;;;;;;;6.70;3.88;;;14.50;99.90;;;;;;6176958;28;20057;-81
2022/10/26 04:45:07;;;;;;;8.88;2.17;;;14.60;99.90;;;;;;6176994;28;20051;-81
2022/10/26 04:48:11;;;;;;;17.02;3.22;;;14.60;99.90;;;;;;6177033;28;20047;-80
2022/10/26 04:51:14;;;;;;;15.98;3.08;;;14.60;99.90;;;;;;6177336;28;20050;-80
2022/10/26 04:54:16;;;;;;;10.80;3.67;;;14.70;99.90;;;;;;6176619;28;20047;-81
2022/10/26 04:57:18;;;;;;;9.15;5.35;;;14.80;99.90;;;;;;6176890;28;20616;-80
2022/10/26 05:00:20;;;;;;;7.13;2.55;;;14.90;99.90;;;;;;6176586;28;20091;-82
2022/10/26 05:03:22;;;;;;;8.20;2.53;;;14.90;99.90;;;;;;6177188;28;20066;-80
2022/10/26 05:06:25;;;;;;;7.85;3.33;;;14.90;99.90;;;;;;6176347;28;20500;-80
2022/10/26 05:09:26;;;;;;;10.32;2.75;;;14.90;99.90;;;;;;6176510;28;20046;-81
2022/10/26 05:12:28;;;;;;;8.63;2.35;;;15.00;99.90;;;;;;6177638;28;20039;-80
2022/10/26 05:15:30;;;;;;;9.98;2.40;;;15.00;99.90;;;;;;6177418;28;20047;-81
2022/10/26 05:18:32;;;;;;;12.73;2.50;;;15.10;99.90;;;;;;6177234;28;20421;-81
2022/10/26 05:21:35;;;;;;;9.35;3.13;;;15.20;99.90;;;;;;6176826;28;20051;-81
2022/10/26 05:24:36;;;;;;;10.57;3.03;;;15.20;99.90;;;;;;6177371;28;20049;-81
2022/10/26 05:27:38;;;;;;;7.30;3.28;;;15.30;99.90;;;;;;6177119;28;20139;-80
2022/10/26 05:30:41;;;;;;;4.45;2.33;;;15.30;99.90;;;;;;6176951;28;20066;-81
2022/10/26 05:33:43;;;;;;;80.72;28.27;;;15.30;99.90;;;;;;6176602;28;20046;-81
2022/10/26 05:36:46;;;;;;;23.85;8.88;;;15.30;99.90;;;;;;6178347;28;20047;-80
2022/10/26 05:39:47;;;;;;;9.13;3.55;;;15.40;99.90;;;;;;6177873;28;20053;-81
2022/10/26 05:42:49;;;;;;;12.30;2.90;;;15.40;99.90;;;;;;6178991;28;20062;-80
2022/10/26 05:45:51;;;;;;;9.98;2.63;;;15.50;99.90;;;;;;6177778;28;20078;-81
2022/10/26 05:48:53;;;;;;;9.30;3.40;;;15.30;99.90;;;;;;6177003;28;20531;-81
2022/10/26 05:51:56;;;;;;;10.13;2.95;;;15.30;99.90;;;;;;6176889;28;20043;-81
2022/10/26 05:54:58;;;;;;;5.72;2.83;;;15.30;99.90;;;;;;6177513;28;20414;-80
2022/10/26 05:58:00;;;;;;;10.85;3.63;;;15.30;99.90;;;;;;6176409;28;20504;-81
2022/10/26 06:01:14;;;;;;;16.95;3.60;;;15.20;99.90;;;;;;6177179;28;20058;-81
2022/10/26 06:04:27;;;;;;;15.95;3.30;;;15.20;99.90;;;;;;6176316;28;20042;-81
2022/10/26 06:07:32;;;;;;;9.40;2.85;;;15.20;99.90;;;;;;6178757;28;20054;-81
2022/10/26 06:10:34;;;;;;;16.30;5.13;;;15.20;99.90;;;;;;6176326;28;20109;-80
2022/10/26 06:13:36;;;;;;;7.63;3.15;;;15.30;99.90;;;;;;6176886;28;20047;-80
2022/10/26 06:16:50;;;;;;;5.65;2.67;;;15.30;99.90;;;;;;6176868;28;20047;-81
2022/10/26 06:20:07;;;;;;;9.63;2.80;;;15.30;99.90;;;;;;6175986;28;20050;-81
2022/10/26 06:23:20;;;;;;;16.05;2.78;;;15.30;99.90;;;;;;6176941;28;20051;-81
2022/10/26 06:26:33;;;;;;;7.50;3.42;;;15.20;99.90;;;;;;6178164;28;20051;-81
2022/10/26 06:29:44;;;;;;;11.77;2.67;;;15.30;99.90;;;;;;6175364;28;20043;-80
2022/10/26 06:32:47;;;;;;;7.15;2.40;;;15.30;99.90;;;;;;6150442;28;20051;-80
2022/10/26 06:35:56;;;;;;;8.65;2.83;;;15.30;99.90;;;;;;6176342;28;20131;-80
2022/10/26 06:39:02;;;;;;;6.95;2.67;;;15.30;99.90;;;;;;6176292;28;20058;-80
2022/10/26 06:42:05;;;;;;;7.03;3.03;;;15.30;99.90;;;;;;6175654;28;20046;-80
2022/10/26 06:45:10;;;;;;;5.20;2.42;;;15.40;99.90;;;;;;6175216;28;20412;-81
2022/10/26 06:48:19;;;;;;;7.93;2.65;;;15.40;99.90;;;;;;6175904;28;20057;-81
2022/10/26 06:51:22;;;;;;;7.00;2.58;;;15.40;99.90;;;;;;6191054;28;20267;-80
2022/10/26 06:54:36;;;;;;;5.15;2.58;;;15.40;99.90;;;;;;6193453;28;20051;-80
2022/10/26 06:57:40;;;;;;;17.33;3.13;;;15.50;99.90;;;;;;6198564;28;20523;-80
2022/10/26 07:00:43;;;;;;;8.80;3.20;;;15.70;99.90;;;;;;6198675;28;20047;-81
2022/10/26 07:03:45;;;;;;;22.27;7.28;;;15.70;99.90;;;;;;6175586;28;20046;-81
2022/10/26 07:06:47;;;;;;;6.47;3.00;;;15.80;99.90;;;;;;6174368;28;20521;-81
2022/10/26 07:09:50;;;;;;;5.45;2.75;;;15.90;99.90;;;;;;6174784;28;20046;-80
2022/10/26 07:12:52;;;;;;;10.98;3.35;;;15.90;99.90;;;;;;6174433;28;20527;-80
2022/10/26 07:15:54;;;;;;;9.43;3.38;;;16.00;99.90;;;;;;6175312;28;20073;-80
2022/10/26 07:18:55;;;;;;;10.82;3.97;;;16.20;99.90;;;;;;6179291;28;20050;-81
2022/10/26 07:21:59;;;;;;;13.25;3.97;;;16.20;99.90;;;;;;6193117;28;20046;-80
2022/10/26 07:25:02;;;;;;;16.98;6.43;;;16.20;99.90;;;;;;6202918;28;20068;-80
2022/10/26 07:28:03;;;;;;;5.07;3.55;;;16.30;99.90;;;;;;6203598;28;20042;-81
2022/10/26 07:31:05;;;;;;;12.38;2.88;;;16.40;99.90;;;;;;6204381;28;20058;-81
2022/10/26 07:34:07;;;;;;;9.40;2.40;;;16.50;99.90;;;;;;6203109;28;20046;-80
2022/10/26 07:37:08;;;;;;;7.28;2.97;;;16.50;99.90;;;;;;6203129;28;20069;-81
2022/10/26 07:40:12;;;;;;;10.38;3.03;;;16.60;99.90;;;;;;6202820;28;20435;-81
2022/10/26 07:43:14;;;;;;;9.00;2.78;;;16.70;99.90;;;;;;6207285;23;20062;-85
2022/10/26 07:46:27;;;;;;;7.93;2.97;;;16.90;99.90;;;;;;6178392;28;20124;-88
2022/10/26 07:49:31;;;;;;;4.97;2.40;;;17.10;99.90;;;;;;6180038;28;20050;-86
2022/10/26 07:52:34;;;;;;;5.47;2.42;;;17.40;99.90;;;;;;6193402;28;20042;-85
2022/10/26 07:55:37;;;;;;;8.52;2.70;;;17.40;99.90;;;;;;6202200;28;20050;-87
2022/10/26 07:58:41;;;;;;;5.72;2.40;;;17.50;99.90;;;;;;6201888;28;20046;-86
2022/10/26 08:01:43;;;;;;;14.18;2.95;;;17.60;99.90;;;;;;6201769;28;20043;-87
2022/10/26 08:04:45;;;;;;;12.82;2.70;;;17.70;99.90;;;;;;6185440;28;20050;-88
2022/10/26 08:07:47;;;;;;;7.72;2.25;;;18.00;99.90;;;;;;6156309;28;20047;-87
2022/10/26 08:14:27;;;;;;;6.22;2.33;;;18.40;99.90;;;;;;6142707;28;20055;-85
2022/10/26 08:17:41;;;;;;;8.27;2.22;;;18.80;99.90;;;;;;6153300;28;20055;-88
2022/10/26 08:21:31;;;;;;;5.28;1.65;;;18.90;99.90;;;;;;6174787;28;20046;-88
2022/10/26 08:24:43;;;;;;;14.18;1.77;;;19.10;99.90;;;;;;6155036;28;20508;-86
2022/10/26 08:27:46;;;;;;;6.43;1.65;;;19.40;99.90;;;;;;6151905;28;20087;-88
2022/10/26 08:30:47;;;;;;;10.23;1.83;;;19.60;99.90;;;;;;6153658;28;20053;-86
2022/10/26 08:33:49;;;;;;;6.97;1.42;;;19.80;99.90;;;;;;6152060;28;20055;-86
2022/10/26 08:36:51;;;;;;;7.63;2.92;;;20.00;99.90;;;;;;6153396;28;20073;-86
2022/10/26 08:39:53;;;;;;;10.57;1.73;;;20.20;99.90;;;;;;6152683;28;20050;-86
2022/10/26 08:43:01;;;;;;;13.80;2.28;;;20.30;99.90;;;;;;6152703;28;20054;-86
2022/10/26 08:46:09;;;;;;;10.07;2.53;;;20.40;99.90;;;;;;6152084;28;20043;-88
2022/10/26 08:49:20;;;;;;;12.43;2.35;;;20.80;99.90;;;;;;6157823;28;20043;-87
2022/10/26 08:52:28;;;;;;;6.70;2.20;;;21.20;99.90;;;;;;6192034;28;20046;-86
2022/10/26 08:55:38;;;;;;;5.22;1.48;;;21.40;99.90;;;;;;6200812;28;20047;-85
2022/10/26 08:58:48;;;;;;;4.90;1.92;;;21.90;99.90;;;;;;6201207;28;20061;-86
2022/10/26 09:01:50;;;;;;;8.30;1.77;;;22.00;99.90;;;;;;6201484;28;20046;-89
2022/10/26 09:04:53;;;;;;;6.43;1.92;;;22.30;99.90;;;;;;6194266;28;20076;-85
2022/10/26 09:08:02;;;;;;;2.65;1.10;;;22.30;99.50;;;;;;6174938;28;20376;-87
2022/10/26 09:11:15;;;;;;;1.88;1.10;;;22.20;98.90;;;;;;6176495;28;20053;-86
2022/10/26 09:14:24;;;;;;;3.35;1.25;;;22.30;98.70;;;;;;6175505;28;20369;-86
2022/10/26 09:17:38;;;;;;;6.05;1.25;;;22.40;98.60;;;;;;6175204;28;20139;-86
2022/10/26 09:20:57;;;;;;;5.63;1.20;;;22.40;98.60;;;;;;6183084;28;20528;-86
2022/10/26 09:24:04;;;;;;;5.43;1.30;;;22.60;98.50;;;;;;6199100;28;20042;-85
2022/10/26 09:27:16;;;;;;;7.68;1.55;;;22.80;98.00;;;;;;6199711;28;20049;-87
2022/10/26 09:30:21;;;;;;;5.82;1.40;;;22.80;97.80;;;;;;6199113;28;20529;-86
2022/10/26 09:33:25;;;;;;;6.07;0.93;;;22.80;97.70;;;;;;6199410;28;20047;-86
2022/10/26 09:36:27;;;;;;;10.82;1.75;;;22.70;97.20;;;;;;6199700;28;20451;-87
2022/10/26 09:39:36;;;;;;;9.15;0.93;;;22.70;97.10;;;;;;6198906;28;20672;-88
2022/10/26 09:42:43;;;;;;;4.95;1.23;;;22.90;97.00;;;;;;6199956;28;20054;-86
2022/10/26 09:45:50;;;;;;;4.60;1.50;;;23.10;96.70;;;;;;6200637;28;20042;-85
2022/10/26 09:48:56;;;;;;;7.97;1.10;;;23.50;96.20;;;;;;6207225;28;20054;-85
2022/10/26 09:51:58;;;;;;;4.40;1.05;;;23.90;95.70;;;;;;6195442;28;20042;-85
2022/10/26 09:54:59;;;;;;;3.28;1.40;;;24.30;95.00;;;;;;6199613;28;20065;-85
2022/10/26 09:58:04;;;;;;;6.22;2.33;;;24.70;94.10;;;;;;6197874;28;20101;-86
2022/10/26 10:01:07;;;;;;;3.70;1.10;;;25.00;93.30;;;;;;6199394;28;20047;-84
2022/10/26 10:04:18;;;;;;;5.90;1.23;;;24.90;92.40;;;;;;6199109;28;20046;-85
2022/10/26 10:07:20;;;;;;;9.18;1.40;;;24.80;91.90;;;;;;6199920;28;20050;-83
2022/10/26 10:10:22;;;;;;;6.25;1.05;;;24.70;91.50;;;;;;6199486;28;20061;-85
2022/10/26 10:13:27;;;;;;;9.65;1.33;;;24.60;91.20;;;;;;6199831;28;20542;-85
2022/10/26 10:16:30;;;;;;;5.93;1.50;;;24.50;91.20;;;;;;6199313;28;20035;-84
2022/10/26 10:19:34;;;;;;;9.55;1.08;;;24.40;91.20;;;;;;6196183;28;20046;-85
2022/10/26 10:22:36;;;;;;;3.20;0.88;;;24.70;91.20;;;;;;6191268;28;20522;-86
2022/10/26 10:25:39;;;;;;;8.57;1.77;;;24.80;90.80;;;;;;6198696;28;20043;-84
2022/10/26 10:28:42;;;;;;;3.63;1.13;;;24.80;90.50;;;;;;6198374;28;20050;-85
2022/10/26 10:31:56;;;;;;;2.50;1.08;;;24.90;90.30;;;;;;6199298;28;20065;-84
2022/10/26 10:34:59;;;;;;;7.65;1.25;;;24.90;90.10;;;;;;6198816;28;20054;-83
2022/10/26 10:38:01;;;;;;;3.17;1.20;;;24.80;90.00;;;;;;6197984;28;20050;-84
2022/10/26 10:41:04;;;;;;;16.75;1.33;;;24.80;89.60;;;;;;6198118;28;20526;-84
2022/10/26 10:44:12;;;;;;;2.38;1.05;;;24.70;89.40;;;;;;6198060;28;20530;-84
2022/10/26 10:47:23;;;;;;;9.38;1.13;;;24.60;89.20;;;;;;6198168;28;20121;-85
2022/10/26 10:50:25;;;;;;;6.43;1.17;;;24.60;88.90;;;;;;6193213;28;20046;-84
2022/10/26 10:53:35;;;;;;;9.43;2.05;;;24.60;88.20;;;;;;6191715;28;20488;-84
2022/10/26 10:56:41;;;;;;;3.17;0.70;;;24.80;88.20;;;;;;6178967;28;20526;-84
2022/10/26 10:59:59;;;;;;;5.45;1.35;;;25.10;87.00;;;;;;6180980;28;20069;-84
2022/10/26 11:03:32;;;;;;;7.63;0.82;;;25.30;86.50;;;;;;6226041;28;20046;-82
2022/10/26 11:06:37;;;;;;;2.60;1.17;;;25.60;86.10;;;;;;6208672;28;20057;-85
2022/10/26 11:09:43;;;;;;;8.10;1.10;;;26.00;84.20;;;;;;6207452;28;20058;-85
2022/10/26 11:12:49;;;;;;;7.63;1.20;;;26.00;82.60;;;;;;6207846;28;20050;-84
2022/10/26 11:15:56;;;;;;;3.45;0.80;;;26.00;82.30;;;;;;6179693;28;20039;-86
2022/10/26 11:19:04;;;;;;;8.80;2.73;;;26.00;81.90;;;;;;6182348;28;20062;-85
2022/10/26 11:22:13;;;;;;;5.65;1.20;;;25.90;81.30;;;;;;6181261;28;20054;-85
2022/10/26 11:25:22;;;;;;;2.83;1.08;;;26.00;80.80;;;;;;6183403;28;20047;-84
2022/10/26 11:28:35;;;;;;;5.80;1.10;;;26.20;80.60;;;;;;6205291;28;20045;-86
2022/10/26 11:31:41;;;;;;;4.70;1.20;;;26.30;79.30;;;;;;6205421;28;20050;-85
2022/10/26 11:34:50;;;;;;;18.33;7.13;;;26.20;79.00;;;;;;6204535;28;20513;-84
2022/10/26 11:37:56;;;;;;;4.43;0.93;;;26.40;78.90;;;;;;6204043;28;20050;-84
2022/10/26 11:41:03;;;;;;;5.10;0.70;;;26.50;77.40;;;;;;6202968;28;20053;-84
2022/10/26 11:44:13;;;;;;;9.93;1.15;;;26.80;76.30;;;;;;6204462;28;20057;-84
2022/10/26 11:47:18;;;;;;;8.13;1.27;;;27.00;75.10;;;;;;6204238;28;20046;-84
2022/10/26 11:50:23;;;;;;;4.25;1.15;;;27.20;74.60;;;;;;6198659;28;20046;-84
2022/10/26 11:53:30;;;;;;;4.00;0.73;;;27.60;74.10;;;;;;6196428;28;20050;-85
2022/10/26 11:56:36;;;;;;;11.82;1.38;;;27.90;73.00;;;;;;6202306;28;20042;-84
2022/10/26 11:59:42;;;;;;;6.03;1.13;;;28.30;72.00;;;;;;6201194;28;20050;-85
2022/10/26 12:02:49;;;;;;;6.10;1.45;;;28.60;71.10;;;;;;6200853;28;20511;-84
2022/10/26 12:05:53;;;;;;;4.73;1.10;;;28.70;69.70;;;;;;6201831;28;20515;-85
2022/10/26 12:09:01;;;;;;;3.05;1.02;;;28.70;68.70;;;;;;6201050;28;20057;-85
2022/10/26 12:12:09;;;;;;;4.57;1.00;;;28.70;69.20;;;;;;6202555;28;20046;-86
2022/10/26 12:15:18;;;;;;;6.28;1.63;;;28.80;68.30;;;;;;6202697;28;20070;-85
2022/10/26 12:18:26;;;;;;;10.55;1.25;;;28.60;68.40;;;;;;6173688;28;20047;-84
2022/10/26 12:21:30;;;;;;;5.28;1.00;;;28.70;67.80;;;;;;6188199;28;20042;-84
2022/10/26 12:24:34;;;;;;;74.00;44.17;;;28.80;68.00;;;;;;6201530;28;20478;-84
2022/10/26 12:27:51;;;;;;;11.73;6.40;;;28.90;67.90;;;;;;6201071;28;20105;-83
2022/10/26 12:30:53;;;;;;;12.85;6.55;;;29.20;67.70;;;;;;6201695;28;20054;-85
2022/10/26 12:33:55;;;;;;;4.05;1.70;;;29.50;66.40;;;;;;6200810;28;20046;-84
2022/10/26 12:37:24;;;;;;;5.57;2.58;;;29.60;65.70;;;;;;6200823;28;20066;-84
2022/10/26 12:40:41;;;;;;;4.47;1.40;;;29.80;65.70;;;;;;6201255;28;20049;-84
2022/10/26 12:43:43;;;;;;;4.40;1.17;;;30.00;64.10;;;;;;6199772;28;20053;-84
2022/10/26 12:46:45;;;;;;;6.13;0.70;;;30.00;63.80;;;;;;6201457;28;20054;-84
2022/10/26 12:50:18;;;;;;;4.35;0.70;;;29.90;62.60;;;;;;6200203;28;20500;-84
2022/10/26 12:53:22;;;;;;;7.82;2.28;;;29.70;62.50;;;;;;6189154;28;20054;-85
2022/10/26 12:56:31;;;;;;;4.60;1.48;;;29.60;62.50;;;;;;6200202;28;20054;-85
2022/10/26 12:59:38;;;;;;;38.90;17.63;;;29.40;62.20;;;;;;6185148;28;20055;-84
2022/10/26 13:02:53;;;;;;;30.45;8.00;;;29.30;62.40;;;;;;6206883;28;20057;-85
2022/10/26 13:06:25;;;;;;;83.30;28.73;;;29.20;63.30;;;;;;6201819;28;20049;-85
2022/10/26 13:09:32;;;;;;;11.45;5.00;;;29.30;62.90;;;;;;6197379;28;20050;-86
2022/10/26 13:12:45;;;;;;;19.23;9.27;;;29.30;63.10;;;;;;6199762;28;20046;-85
2022/10/26 13:15:54;;;;;;;9.52;1.50;;;29.60;62.60;;;;;;6199948;28;20046;-86
2022/10/26 13:18:57;;;;;;;9.50;4.05;;;29.80;61.70;;;;;;6180034;28;20671;-87
2022/10/26 13:22:00;;;;;;;9.20;1.65;;;29.70;61.50;;;;;;6186452;28;20046;-84
2022/10/26 13:25:05;;;;;;;3.10;1.35;;;29.60;61.90;;;;;;6176437;28;20066;-85
2022/10/26 13:28:32;;;;;;;8.00;2.25;;;29.50;61.60;;;;;;6175495;28;20050;-84
2022/10/26 13:31:53;;;;;;;4.57;1.08;;;29.50;61.00;;;;;;6175230;28;20113;-85
2022/10/26 13:34:56;;;;;;;8.55;2.17;;;29.30;60.70;;;;;;6175037;28;20444;-85
2022/10/26 13:38:00;;;;;;;4.05;0.80;;;29.20;61.00;;;;;;6174773;28;20524;-86
2022/10/26 13:41:22;;;;;;;7.28;1.23;;;29.20;61.00;;;;;;6174972;28;20433;-85
2022/10/26 13:44:29;;;;;;;4.97;0.77;;;29.10;60.80;;;;;;6157606;23;1292892;-82
2022/10/26 13:47:42;;;;;;;8.25;1.20;;;29.10;60.80;;;;;;6179613;28;20058;-82
2022/10/26 13:50:48;;;;;;;6.72;1.30;;;29.00;60.40;;;;;;6187592;28;20051;-82
2022/10/26 13:53:54;;;;;;;4.45;0.95;;;29.00;61.20;;;;;;6200519;28;20054;-82
2022/10/26 13:57:16;;;;;;;7.45;1.60;;;29.00;60.70;;;;;;6202758;28;20061;-81
2022/10/26 14:00:21;;;;;;;2.05;0.73;;;29.10;60.60;;;;;;6203079;28;20043;-82
2022/10/26 14:03:23;;;;;;;4.45;1.02;;;29.00;60.40;;;;;;6203738;28;20046;-82
2022/10/26 14:06:28;;;;;;;5.63;0.80;;;29.00;60.70;;;;;;6178850;28;20047;-82
2022/10/26 14:09:30;;;;;;;7.53;1.17;;;29.20;60.80;;;;;;6194726;28;20363;-81
2022/10/26 14:12:34;;;;;;;6.85;1.75;;;29.30;60.60;;;;;;6204044;28;20046;-83
2022/10/26 14:15:36;;;;;;;7.57;0.93;;;29.40;60.50;;;;;;6205607;28;20519;-83
2022/10/26 14:18:39;;;;;;;2.92;0.73;;;29.40;60.30;;;;;;6192704;28;20057;-81
2022/10/26 14:21:41;;;;;;;9.40;1.10;;;29.50;60.50;;;;;;6181818;28;20153;-81
2022/10/26 14:24:51;;;;;;;2.67;0.93;;;29.60;59.90;;;;;;6179039;28;20069;-82
2022/10/26 14:27:55;;;;;;;4.75;0.82;;;29.60;60.10;;;;;;6182673;28;20053;-81
2022/10/26 14:31:11;;;;;;;5.43;1.00;;;29.60;60.00;;;;;;6184268;28;20051;-81
2022/10/26 14:34:13;;;;;;;4.28;1.15;;;29.50;60.20;;;;;;6182174;28;20055;-81
2022/10/26 14:37:24;;;;;;;3.50;1.25;;;29.60;60.40;;;;;;6184028;28;20401;-82
2022/10/26 14:40:28;;;;;;;9.98;1.27;;;29.70;60.00;;;;;;6183549;28;20053;-81
2022/10/26 14:43:32;;;;;;;6.22;1.10;;;29.70;59.80;;;;;;6183482;28;20136;-81
2022/10/26 14:46:35;;;;;;;4.95;0.70;;;29.70;59.50;;;;;;6184616;28;20047;-82
2022/10/26 14:49:37;;;;;;;7.13;1.20;;;29.60;59.80;;;;;;6184407;28;20055;-82
2022/10/26 14:52:38;;;;;;;4.38;1.08;;;29.70;60.00;;;;;;6191343;28;20039;-81
2022/10/26 14:55:47;;;;;;;4.47;1.00;;;29.80;59.80;;;;;;6185296;28;20055;-82
2022/10/26 14:58:51;;;;;;;26.25;11.68;;;29.60;60.00;;;;;;6189450;28;20054;-80
2022/10/26 15:01:55;;;;;;;26.15;11.32;;;29.60;60.20;;;;;;6181590;28;20511;-82
2022/10/26 15:04:58;;;;;;;7.75;1.27;;;29.60;60.50;;;;;;6204255;28;20051;-82
2022/10/26 15:08:02;;;;;;;5.20;0.85;;;29.50;60.40;;;;;;6205066;28;20507;-80
2022/10/26 15:11:07;;;;;;;5.57;0.90;;;29.30;60.80;;;;;;6207271;28;20065;-81
2022/10/26 15:14:12;;;;;;;8.88;1.45;;;29.10;61.00;;;;;;6205053;28;20049;-82
2022/10/26 15:17:22;;;;;;;7.30;1.65;;;28.90;61.20;;;;;;6206992;28;20093;-80
2022/10/26 15:20:26;;;;;;;6.13;1.60;;;28.70;61.60;;;;;;6190696;28;20054;-81
2022/10/26 15:23:29;;;;;;;7.00;1.60;;;28.60;61.90;;;;;;6206528;28;20051;-81
2022/10/26 15:26:31;;;;;;;9.45;1.58;;;28.50;62.10;;;;;;6205050;28;20046;-81
2022/10/26 15:29:42;;;;;;;4.88;1.48;;;28.40;62.20;;;;;;6204920;28;20058;-80
2022/10/26 15:32:44;;;;;;;4.72;1.05;;;28.10;62.60;;;;;;6204874;28;20050;-81
2022/10/26 15:35:45;;;;;;;6.97;1.38;;;27.70;63.10;;;;;;6205611;28;20042;-81
2022/10/26 15:38:47;;;;;;;3.08;0.75;;;27.40;64.10;;;;;;6204726;28;20396;-80
2022/10/26 15:41:51;;;;;;;13.00;2.20;;;27.00;65.00;;;;;;6204879;28;20042;-80
2022/10/26 15:44:54;;;;;;;8.15;2.13;;;26.50;65.90;;;;;;6204789;28;20051;-82
2022/10/26 15:47:57;;;;;;;11.80;1.80;;;25.90;67.20;;;;;;6204363;28;20517;-80
2022/10/26 15:50:59;;;;;;;4.97;1.30;;;25.40;68.40;;;;;;6194250;28;20522;-80
2022/10/26 15:54:03;;;;;;;8.27;1.88;;;24.90;69.60;;;;;;6180378;28;20042;-82
2022/10/26 15:57:05;;;;;;;7.32;1.33;;;24.30;71.30;;;;;;6185433;28;20039;-82
2022/10/26 16:00:15;;;;;;;6.85;1.38;;;23.80;72.50;;;;;;6181619;28;20047;-81
2022/10/26 16:03:20;;;;;;;7.50;2.20;;;23.40;74.10;;;;;;6180114;28;20054;-82
2022/10/26 16:06:27;;;;;;;9.82;1.60;;;23.00;75.30;;;;;;6180321;28;20058;-82
2022/10/26 16:09:28;;;;;;;9.90;1.83;;;22.70;76.60;;;;;;6179331;28;20050;-81
2022/10/26 16:12:30;;;;;;;8.10;1.30;;;22.40;77.40;;;;;;6180477;28;20614;-81